ROMMA est une association bénévole à but non lucratif. Votre soutien est indispensable : ADHERER à ROMMA ou FAIRE un DON

Lyon - (69, Rhône)

Plaine lyonnaise (169 m)   Longitude: 04° 49' 55" E   Latitude: 45° 43' 50" N Station partenaire n°124
 

Détail journalier du     <<     >>

Température Precipitation Humidité Pression Vent Dir Rafale Dir. rafale Ensol.
Heure (°C) (mm) (%) (hPa) (km/h) (km/h) (min)
01:00 12.908410176N23N0
02:00 11.708910173N6N0
03:00 12.108810174N16N0
04:00 11.508710175N18N0
05:00 11.608610175N16N0
06:00 11.908310175N14N0
07:00 11.608210176N18N0
08:00 11.308410185N18N0
09:00 11.308410184N16N0
10:00 12.508110194N14N0
11:00 14.807410196N16N60
12:00 15.207010196N18N30
13:00 16.606410198N19N30
14:00 17.305810198N24N30
15:00 16.9062101910N26N30
16:00 16.906110199N21N20
17:00 16.905910199N24N10
18:00 17.405510199NO26NO60
19:00 15.406310206N18N0
20:00 14.207010205N18N0
21:00 12.707610203N10N0
22:00 10.608410201N5N0
23:00 9.808910212N3N0
minuit 9.309110212N5N0

Graphique du 07-10-2019

 

Serveur OMMA